Time;durP1;ratioP1;P1;durP2;ratioP2;P2;SDS_P1;SDS_P2;PMS_P1;PMS_P2;Temp;Humidity;BMP_temperature;BMP_pressure;BME280_temperature;BME280_humidity;BME280_pressure;Samples;Min_cycle;Max_cycle;Signal;HPM_P1;HPM_P2
2021/11/17 02:28:16;;;;;;;;;;;14.80;99.90;;;;;;5077276;28;989;-56
2021/11/17 02:30:51;;;;;;;;;;;14.80;99.90;;;;;;5076993;28;1967;-56
2021/11/17 02:33:17;;;;;;;;;;;14.80;99.90;;;;;;5077975;28;1075;-56
2021/11/17 02:36:13;;;;;;;;;;;14.70;99.90;;;;;;5077871;28;825;-56
2021/11/17 02:38:48;;;;;;;;;;;14.70;99.90;;;;;;5063833;28;1402;-56
2021/11/17 02:41:26;;;;;;;;;;;14.70;99.90;;;;;;5074718;28;809;-56
2021/11/17 02:43:52;;;;;;;;;;;14.70;99.90;;;;;;5077460;28;888;-56
2021/11/17 02:46:21;;;;;;;;;;;14.70;99.90;;;;;;5076768;28;1252;-57
2021/11/17 02:48:57;;;;;;;;;;;14.70;99.90;;;;;;5076966;28;1020;-56
2021/11/17 02:51:28;;;;;;;;;;;14.60;99.90;;;;;;5076904;28;1972;-56
2021/11/17 02:54:13;;;;;;;;;;;14.60;99.90;;;;;;5059298;28;877;-56
2021/11/17 02:56:45;;;;;;;;;;;14.60;99.90;;;;;;5076899;28;823;-56
2021/11/17 02:59:17;;;;;;;;;;;14.60;99.90;;;;;;5077148;28;853;-57
2021/11/17 03:01:43;;;;;;;;;;;14.60;99.90;;;;;;5077193;28;817;-56
2021/11/17 03:04:09;;;;;;;;;;;14.60;99.90;;;;;;5076403;28;927;-56
2021/11/17 03:06:35;;;;;;;;;;;14.60;99.90;;;;;;5077266;28;777;-56
2021/11/17 03:09:13;;;;;;;;;;;14.60;99.90;;;;;;5077212;28;834;-56
2021/11/17 03:11:48;;;;;;;;;;;14.60;99.90;;;;;;5075826;28;1961;-56
2021/11/17 03:14:14;;;;;;;;;;;14.50;99.90;;;;;;5077128;28;779;-56
2021/11/17 03:16:46;;;;;;;;;;;14.50;99.90;;;;;;5076432;28;1048;-56
2021/11/17 03:19:15;;;;;;;;;;;14.50;99.90;;;;;;5076700;28;810;-56
2021/11/17 03:21:41;;;;;;;;;;;14.50;99.90;;;;;;5077024;28;857;-56
2021/11/17 03:24:10;;;;;;;;;;;14.50;99.90;;;;;;5076249;28;1245;-56
2021/11/17 03:26:39;;;;;;;;;;;14.50;99.90;;;;;;5076389;28;785;-56
2021/11/17 03:29:05;;;;;;;;;;;14.40;99.90;;;;;;5070540;28;835;-56
2021/11/17 03:31:44;;;;;;;;;;;14.40;99.90;;;;;;5076773;28;1902;-56
2021/11/17 03:34:13;;;;;;;;;;;14.40;99.90;;;;;;5071054;28;1133;-56
2021/11/17 03:36:58;;;;;;;;;;;14.40;99.90;;;;;;5073945;28;1258;-56
2021/11/17 03:39:42;;;;;;;;;;;14.40;99.90;;;;;;5076116;28;885;-56
2021/11/17 03:42:18;;;;;;;;;;;14.30;99.90;;;;;;5076395;28;957;-56
2021/11/17 03:45:03;;;;;;;;;;;14.30;99.90;;;;;;5053526;28;921;-56
2021/11/17 03:47:32;;;;;;;;;;;14.30;99.90;;;;;;5076058;28;805;-56
2021/11/17 03:50:01;;;;;;;;;;;14.30;99.90;;;;;;5075733;28;1906;-56
2021/11/17 03:52:45;;;;;;;;;;;14.30;99.90;;;;;;5075501;28;818;-56
2021/11/17 03:55:26;;;;;;;;;;;14.30;99.90;;;;;;5075928;28;814;-56
2021/11/17 03:58:05;;;;;;;;;;;14.30;99.90;;;;;;5076230;28;775;-56
2021/11/17 04:00:50;;;;;;;;;;;14.20;99.90;;;;;;5076090;28;832;-56
2021/11/17 04:03:34;;;;;;;;;;;14.30;99.90;;;;;;5076010;28;1012;-56
2021/11/17 04:06:13;;;;;;;;;;;14.20;99.90;;;;;;5076256;28;885;-56
2021/11/17 04:08:41;;;;;;;;;;;14.20;99.90;;;;;;5075622;28;1015;-56
2021/11/17 04:11:20;;;;;;;;;;;14.20;99.90;;;;;;5075771;28;1911;-56
2021/11/17 04:13:53;;;;;;;;;;;14.20;99.90;;;;;;5075619;28;862;-56
2021/11/17 04:16:25;;;;;;;;;;;14.20;99.90;;;;;;5075957;28;822;-56
2021/11/17 04:19:01;;;;;;;;;;;14.20;99.90;;;;;;5075836;28;859;-56
2021/11/17 04:21:50;;;;;;;;;;;14.20;99.90;;;;;;5076083;28;800;-56
2021/11/17 04:24:16;;;;;;;;;;;14.10;99.90;;;;;;5069970;28;1621;-56
2021/11/17 04:26:51;;;;;;;;;;;14.10;99.90;;;;;;5075626;28;783;-56
2021/11/17 04:29:36;;;;;;;;;;;14.10;99.90;;;;;;5075813;28;876;-56
2021/11/17 04:32:18;;;;;;;;;;;14.10;99.90;;;;;;5075739;28;1909;-56
2021/11/17 04:35:10;;;;;;;;;;;14.10;99.90;;;;;;5075786;28;854;-56
2021/11/17 04:37:57;;;;;;;;;;;14.10;99.90;;;;;;5044518;28;1194;-56
2021/11/17 04:40:40;;;;;;;;;;;14.00;99.90;;;;;;5057944;28;925;-56
2021/11/17 04:43:06;;;;;;;;;;;14.00;99.90;;;;;;5076708;28;849;-56
2021/11/17 04:45:50;;;;;;;;;;;14.00;99.90;;;;;;5079414;28;977;-56
2021/11/17 04:48:40;;;;;;;;;;;14.00;99.90;;;;;;5079711;28;777;-56
2021/11/17 04:51:15;;;;;;;;;;;14.00;99.90;;;;;;5079867;28;1961;-56
2021/11/17 04:53:41;;;;;;;;;;;14.00;99.90;;;;;;5079524;28;800;-56
2021/11/17 04:56:26;;;;;;;;;;;14.00;99.90;;;;;;5079644;28;833;-56
2021/11/17 04:59:04;;;;;;;;;;;14.00;99.90;;;;;;5079388;28;1036;-56
2021/11/17 05:01:36;;;;;;;;;;;14.00;99.90;;;;;;5079021;28;891;-56
2021/11/17 05:04:31;;;;;;;;;;;14.00;99.90;;;;;;5075912;28;762;-56
2021/11/17 05:07:00;;;;;;;;;;;14.00;99.90;;;;;;5042713;28;1109;-56
2021/11/17 05:09:45;;;;;;;;;;;14.00;99.90;;;;;;5079554;28;850;-56
2021/11/17 05:12:17;;;;;;;;;;;14.00;99.90;;;;;;5079235;28;833;-56
2021/11/17 05:14:43;;;;;;;;;;;13.90;99.90;;;;;;5079317;28;801;-56
2021/11/17 05:17:12;;;;;;;;;;;13.90;99.90;;;;;;5078477;28;892;-56
2021/11/17 05:19:47;;;;;;;;;;;13.90;99.90;;;;;;5079444;28;895;-56
2021/11/17 05:22:37;;;;;;;;;;;13.90;99.90;;;;;;5079014;28;814;-56
2021/11/17 05:25:18;;;;;;;;;;;13.90;99.90;;;;;;5078766;28;1148;-56
2021/11/17 05:27:45;;;;;;;;;;;13.90;99.90;;;;;;5078658;28;817;-56
2021/11/17 05:30:21;;;;;;;;;;;13.90;99.90;;;;;;5076527;28;1914;-55
2021/11/17 05:32:49;;;;;;;;;;;13.80;99.90;;;;;;5078902;28;783;-56
2021/11/17 05:35:22;;;;;;;;;;;13.80;99.90;;;;;;5078830;28;800;-56
2021/11/17 05:38:00;;;;;;;;;;;13.80;99.90;;;;;;5078904;28;850;-56
2021/11/17 05:40:52;;;;;;;;;;;13.80;99.90;;;;;;5078548;28;947;-56
2021/11/17 05:43:33;;;;;;;;;;;13.80;99.90;;;;;;5074752;28;1398;-56
2021/11/17 05:46:05;;;;;;;;;;;13.80;99.90;;;;;;5078667;28;798;-56
2021/11/17 05:48:31;;;;;;;;;;;13.80;99.90;;;;;;5078489;28;741;-56
2021/11/17 05:51:06;;;;;;;;;;;13.80;99.90;;;;;;5078110;28;1967;-56
2021/11/17 05:53:51;;;;;;;;;;;13.80;99.90;;;;;;5077131;28;766;-56
2021/11/17 05:56:26;;;;;;;;;;;13.80;99.90;;;;;;5078102;28;886;-56
2021/11/17 05:58:55;;;;;;;;;;;13.80;99.90;;;;;;5078865;28;783;-56
2021/11/17 06:01:21;;;;;;;;;;;13.80;99.90;;;;;;5078354;28;789;-54
2021/11/17 06:04:00;;;;;;;;;;;13.80;99.90;;;;;;5078258;28;809;-54
2021/11/17 06:06:26;;;;;;;;;;;13.80;99.90;;;;;;5077515;28;851;-54
2021/11/17 06:08:54;;;;;;;;;;;13.80;99.90;;;;;;5078486;28;865;-55
2021/11/17 06:11:28;;;;;;;;;;;13.90;99.90;;;;;;5077965;28;1971;-56
2021/11/17 06:13:56;;;;;;;;;;;13.90;99.90;;;;;;5078301;28;796;-56
2021/11/17 06:16:22;;;;;;;;;;;13.90;99.90;;;;;;5060418;28;923;-55
2021/11/17 06:18:48;;;;;;;;;;;14.00;99.90;;;;;;5078304;28;843;-54
2021/11/17 06:21:15;;;;;;;;;;;14.00;99.90;;;;;;5077308;28;1028;-56
2021/11/17 06:23:46;;;;;;;;;;;14.00;99.90;;;;;;5077686;28;1244;-55
2021/11/17 06:26:14;;;;;;;;;;;14.10;99.90;;;;;;5077595;28;904;-56
2021/11/17 06:28:40;;;;;;;;;;;14.10;99.90;;;;;;5077937;28;892;-56
2021/11/17 06:31:06;;;;;;;;;;;14.10;99.90;;;;;;5077765;28;1906;-55
2021/11/17 06:33:32;;;;;;;;;;;14.20;99.90;;;;;;5078066;28;765;-55
2021/11/17 06:35:58;;;;;;;;;;;14.20;99.90;;;;;;5077672;28;761;-54
2021/11/17 06:38:27;;;;;;;;;;;14.20;99.90;;;;;;5077432;28;883;-56
2021/11/17 06:40:53;;;;;;;;;;;14.30;99.90;;;;;;5074135;28;994;-56
2021/11/17 06:43:19;;;;;;;;;;;14.30;99.90;;;;;;5060060;28;1461;-56
2021/11/17 06:45:47;;;;;;;;;;;14.30;99.90;;;;;;5077317;28;936;-54
2021/11/17 06:48:13;;;;;;;;;;;14.30;99.90;;;;;;5076982;28;954;-56
2021/11/17 06:50:41;;;;;;;;;;;14.30;99.90;;;;;;5077337;28;1963;-55
2021/11/17 06:53:07;;;;;;;;;;;14.30;99.90;;;;;;5076993;28;941;-54
2021/11/17 06:55:33;;;;;;;;;;;14.30;99.90;;;;;;5077194;28;896;-55
2021/11/17 06:57:59;;;;;;;;;;;14.30;99.90;;;;;;5077058;28;893;-54
2021/11/17 07:00:26;;;;;;;;;;;14.30;99.90;;;;;;5076216;28;911;-56
2021/11/17 07:02:53;;;;;;;;;;;14.30;99.90;;;;;;5077631;28;964;-55
2021/11/17 07:05:19;;;;;;;;;;;14.30;99.90;;;;;;5075814;28;1107;-56
2021/11/17 07:07:45;;;;;;;;;;;14.30;99.90;;;;;;5076995;28;860;-56
2021/11/17 07:10:13;;;;;;;;;;;14.40;99.90;;;;;;5076647;28;1959;-55
2021/11/17 07:12:39;;;;;;;;;;;14.60;99.90;;;;;;5059336;28;1300;-56
2021/11/17 07:15:05;;;;;;;;;;;14.70;99.90;;;;;;5076491;28;1043;-56
2021/11/17 07:17:31;;;;;;;;;;;14.90;99.90;;;;;;5075792;28;1403;-56
2021/11/17 07:19:57;;;;;;;;;;;15.10;99.90;;;;;;5076751;28;778;-56
2021/11/17 07:22:24;;;;;;;;;;;15.20;99.90;;;;;;5076250;28;825;-54
2021/11/17 07:24:50;;;;;;;;;;;15.40;99.90;;;;;;5076073;28;1220;-55
2021/11/17 07:27:22;;;;;;;;;;;15.50;99.90;;;;;;5074625;28;1201;-56
2021/11/17 07:29:49;;;;;;;;;;;15.60;99.90;;;;;;5075937;28;857;-55
2021/11/17 07:32:15;;;;;;;;;;;15.70;99.90;;;;;;5076034;28;1961;-56
2021/11/17 07:34:41;;;;;;;;;;;15.70;99.90;;;;;;5076461;28;1155;-55
2021/11/17 07:37:07;;;;;;;;;;;15.80;99.90;;;;;;5076525;28;1239;-56
2021/11/17 07:39:33;;;;;;;;;;;15.90;99.90;;;;;;5076542;28;840;-56
2021/11/17 07:41:59;;;;;;;;;;;15.90;99.90;;;;;;5074722;28;1410;-56
2021/11/17 07:44:25;;;;;;;;;;;15.90;99.90;;;;;;5076609;28;833;-56
2021/11/17 07:46:53;;;;;;;;;;;15.90;99.90;;;;;;5076415;28;758;-54
2021/11/17 07:49:19;;;;;;;;;;;16.00;99.90;;;;;;5075431;28;831;-55
2021/11/17 07:51:46;;;;;;;;;;;16.00;99.90;;;;;;5076233;28;1905;-55
2021/11/17 07:54:12;;;;;;;;;;;16.10;99.90;;;;;;5076227;28;888;-56
2021/11/17 07:56:38;;;;;;;;;;;16.10;99.90;;;;;;5075803;28;933;-56
2021/11/17 07:59:05;;;;;;;;;;;16.10;99.90;;;;;;5070572;28;771;-55
2021/11/17 08:01:31;;;;;;;;;;;16.10;99.90;;;;;;5072932;28;1197;-55
2021/11/17 08:03:57;;;;;;;;;;;16.20;99.90;;;;;;5075937;28;1678;-56
2021/11/17 08:06:24;;;;;;;;;;;16.10;99.90;;;;;;5074836;28;1576;-56
2021/11/17 08:08:54;;;;;;;;;;;16.10;99.90;;;;;;5075461;28;1593;-56
2021/11/17 08:11:23;;;;;;;;;;;16.00;99.90;;;;;;5075002;28;1983;-56
2021/11/17 08:13:50;;;;;;;;;;;15.90;99.90;;;;;;5075495;28;978;-55
2021/11/17 08:16:16;;;;;;;;;;;16.00;99.90;;;;;;5074753;28;1022;-56
2021/11/17 08:18:42;;;;;;;;;;;16.10;99.90;;;;;;5075834;28;1026;-55
2021/11/17 08:21:10;;;;;;;;;;;16.20;99.90;;;;;;5074912;28;1437;-56
2021/11/17 08:23:36;;;;;;;;;;;16.20;99.90;;;;;;5075708;28;977;-56
2021/11/17 08:26:03;;;;;;;;;;;16.20;99.90;;;;;;5074478;28;1172;-55
2021/11/17 08:28:29;;;;;;;;;;;16.30;99.90;;;;;;5055698;28;1169;-55
2021/11/17 08:30:55;;;;;;;;;;;16.30;99.90;;;;;;5073389;28;1964;-56
2021/11/17 08:33:21;;;;;;;;;;;16.30;99.90;;;;;;5073852;28;1127;-56
2021/11/17 08:35:48;;;;;;;;;;;16.40;99.90;;;;;;5075224;28;1014;-56
2021/11/17 08:38:16;;;;;;;;;;;16.50;99.90;;;;;;5075229;28;1636;-56
2021/11/17 08:40:45;;;;;;;;;;;16.50;99.90;;;;;;5075369;28;967;-56
2021/11/17 08:43:12;;;;;;;;;;;16.50;99.90;;;;;;5057017;28;1053;-56
2021/11/17 08:45:39;;;;;;;;;;;16.50;99.90;;;;;;5074395;28;1014;-56
2021/11/17 08:48:06;;;;;;;;;;;16.60;99.90;;;;;;5075019;28;1006;-56
2021/11/17 08:50:33;;;;;;;;;;;16.60;99.90;;;;;;5057320;28;1984;-56
2021/11/17 08:53:00;;;;;;;;;;;16.60;99.90;;;;;;5074394;28;970;-56
2021/11/17 08:55:27;;;;;;;;;;;16.60;99.90;;;;;;5074681;28;1105;-55
2021/11/17 08:57:53;;;;;;;;;;;16.60;99.90;;;;;;5074222;28;1049;-55
2021/11/17 09:00:21;;;;;;;;;;;16.60;99.90;;;;;;5075177;28;955;-56
2021/11/17 09:02:50;;;;;;;;;;;16.60;99.90;;;;;;5075078;28;974;-56
2021/11/17 09:05:21;;;;;;;;;;;16.60;99.90;;;;;;5057050;28;1042;-55
2021/11/17 09:07:48;;;;;;;;;;;16.60;99.90;;;;;;5074067;28;1085;-55
2021/11/17 09:10:16;;;;;;;;;;;16.60;99.90;;;;;;5074213;28;1004;-55
2021/11/17 09:12:43;;;;;;;;;;;16.70;99.90;;;;;;5074482;28;1965;-56
2021/11/17 09:15:11;;;;;;;;;;;16.70;99.90;;;;;;5072868;28;1026;-57
2021/11/17 09:17:38;;;;;;;;;;;16.70;99.90;;;;;;5073992;28;1230;-56
2021/11/17 09:20:06;;;;;;;;;;;16.80;99.90;;;;;;5073748;28;1232;-55
2021/11/17 09:22:32;;;;;;;;;;;16.80;99.90;;;;;;5072147;28;1218;-56
2021/11/17 09:24:58;;;;;;;;;;;16.90;99.90;;;;;;5073977;28;1290;-56
2021/11/17 09:27:24;;;;;;;;;;;17.00;99.90;;;;;;5075646;28;1018;-55
2021/11/17 09:29:50;;;;;;;;;;;17.00;99.90;;;;;;5076380;28;1126;-55
2021/11/17 09:32:16;;;;;;;;;;;17.10;99.90;;;;;;5076944;28;2324;-55
2021/11/17 09:34:43;;;;;;;;;;;17.20;99.90;;;;;;5075588;28;1182;-55
2021/11/17 09:37:09;;;;;;;;;;;17.60;99.90;;;;;;5060817;28;1029;-55
2021/11/17 09:39:37;;;;;;;;;;;17.90;99.90;;;;;;5078551;28;1210;-55
2021/11/17 09:42:04;;;;;;;;;;;18.00;99.90;;;;;;5060464;28;1203;-55
2021/11/17 09:44:35;;;;;;;;;;;18.10;99.90;;;;;;5078132;28;947;-55
2021/11/17 09:47:03;;;;;;;;;;;18.10;99.90;;;;;;5078267;28;1022;-56
2021/11/17 09:49:33;;;;;;;;;;;18.10;99.90;;;;;;5060201;28;1161;-56
2021/11/17 09:52:03;;;;;;;;;;;18.00;99.90;;;;;;5076875;28;1890;-56
2021/11/17 09:54:29;;;;;;;;;;;17.90;99.90;;;;;;5060586;28;1108;-56
2021/11/17 09:56:58;;;;;;;;;;;17.90;99.90;;;;;;5072142;28;1003;-57
2021/11/17 09:59:27;;;;;;;;;;;18.10;99.90;;;;;;5073402;28;1215;-57
2021/11/17 10:01:56;;;;;;;;;;;18.40;99.90;;;;;;5075195;28;1180;-57
2021/11/17 10:04:25;;;;;;;;;;;18.50;99.90;;;;;;5077654;28;1014;-57
2021/11/17 10:07:26;;;;;;;;;;;18.50;99.90;;;;;;5075745;28;1353;-57
2021/11/17 10:15:16;;;;;;;;;;;18.40;99.90;;;;;;5075203;28;1075;-57
2021/11/17 10:17:43;;;;;;;;;;;18.50;99.90;;;;;;5073649;28;1369;-57
2021/11/17 10:20:12;;;;;;;;;;;18.50;99.90;;;;;;5074467;28;997;-57
2021/11/17 10:22:39;;;;;;;;;;;18.50;99.90;;;;;;5077952;28;966;-57
2021/11/17 10:25:08;;;;;;;;;;;18.60;99.90;;;;;;5059529;28;1310;-57
2021/11/17 10:27:34;;;;;;;;;;;18.60;99.90;;;;;;5072011;28;1035;-57
2021/11/17 10:30:10;;;;;;;;;;;18.60;99.90;;;;;;5076873;28;1137;-57
2021/11/17 10:32:48;;;;;;;;;;;18.60;99.90;;;;;;5072739;28;1969;-57
2021/11/17 10:35:14;;;;;;;;;;;18.80;99.90;;;;;;5058804;28;1495;-57
2021/11/17 10:37:44;;;;;;;;;;;18.70;99.90;;;;;;5077557;28;958;-57
2021/11/17 10:40:13;;;;;;;;;;;18.60;99.90;;;;;;5058544;28;959;-57
2021/11/17 10:42:39;;;;;;;;;;;18.60;99.90;;;;;;5073679;28;1029;-57
2021/11/17 10:45:08;;;;;;;;;;;18.60;99.90;;;;;;5076986;28;1029;-57
2021/11/17 10:47:37;;;;;;;;;;;18.60;99.90;;;;;;5074671;28;991;-57
2021/11/17 10:50:06;;;;;;;;;;;18.50;99.90;;;;;;5063153;28;1377;-57
2021/11/17 10:52:34;;;;;;;;;;;18.40;99.90;;;;;;5074885;28;2028;-57
2021/11/17 10:55:02;;;;;;;;;;;18.30;99.90;;;;;;5070082;28;995;-58
2021/11/17 10:57:30;;;;;;;;;;;18.30;99.90;;;;;;5075928;28;980;-57
2021/11/17 10:59:57;;;;;;;;;;;18.20;99.90;;;;;;5076067;28;1160;-57
2021/11/17 11:02:25;;;;;;;;;;;18.10;99.90;;;;;;5075240;28;1102;-56
2021/11/17 11:04:54;;;;;;;;;;;18.10;99.90;;;;;;5074320;28;1306;-56
2021/11/17 11:07:19;;;;;;;;;;;18.10;99.90;;;;;;5075564;28;1316;-57
2021/11/17 11:10:05;;;;;;;;;;;18.00;99.90;;;;;;5071852;28;954;-57
2021/11/17 11:12:31;;;;;;;;;;;18.00;99.90;;;;;;5073449;28;1968;-57
2021/11/17 11:15:07;;;;;;;;;;;18.00;99.90;;;;;;5075784;28;1194;-58
2021/11/17 11:17:38;;;;;;;;;;;18.00;99.90;;;;;;5074140;28;1218;-57
2021/11/17 11:20:16;;;;;;;;;;;18.00;99.90;;;;;;5074406;28;1236;-57
2021/11/17 11:23:01;;;;;;;;;;;18.00;99.90;;;;;;5074037;28;978;-57
2021/11/17 11:25:48;;;;;;;;;;;18.10;99.90;;;;;;5076279;28;1770;-58
2021/11/17 11:28:20;;;;;;;;;;;18.00;99.90;;;;;;5072734;28;1205;-56
2021/11/17 11:31:07;;;;;;;;;;;18.00;99.90;;;;;;5075759;28;1961;-56
2021/11/17 11:33:48;;;;;;;;;;;17.90;99.90;;;;;;5055187;28;1218;-56
2021/11/17 11:36:14;;;;;;;;;;;17.90;99.90;;;;;;5058764;28;1054;-56
2021/11/17 11:38:46;;;;;;;;;;;17.80;99.90;;;;;;5076322;28;793;-56
2021/11/17 11:41:24;;;;;;;;;;;17.80;99.90;;;;;;5073031;28;1044;-56
2021/11/17 11:44:09;;;;;;;;;;;17.80;99.90;;;;;;5074967;28;1556;-57
2021/11/17 11:46:35;;;;;;;;;;;17.90;99.90;;;;;;5071321;28;910;-57
2021/11/17 11:49:07;;;;;;;;;;;17.90;99.90;;;;;;5075991;28;851;-56
2021/11/17 11:51:33;;;;;;;;;;;17.90;99.90;;;;;;5075260;28;1983;-56
2021/11/17 11:54:19;;;;;;;;;;;17.90;99.90;;;;;;5058145;28;933;-56
2021/11/17 11:56:47;;;;;;;;;;;17.90;99.90;;;;;;5075632;28;1147;-56
2021/11/17 11:59:16;;;;;;;;;;;17.90;99.90;;;;;;5074529;28;1258;-56
2021/11/17 12:01:42;;;;;;;;;;;18.00;99.90;;;;;;5074683;28;1356;-55
2021/11/17 12:04:19;;;;;;;;;;;18.00;99.90;;;;;;5071034;28;1047;-55
2021/11/17 12:06:51;;;;;;;;;;;18.00;99.90;;;;;;5073812;28;1151;-57
2021/11/17 12:09:21;;;;;;;;;;;18.10;99.90;;;;;;5075586;28;819;-57
2021/11/17 12:11:49;;;;;;;;;;;18.10;99.90;;;;;;5074721;28;1975;-57
2021/11/17 12:14:51;;;;;;;;;;;18.40;99.90;;;;;;5075624;28;851;-56
2021/11/17 12:17:26;;;;;;;;;;;18.50;99.90;;;;;;4993975;28;999;-56
2021/11/17 12:19:54;;;;;;;;;;;18.60;99.90;;;;;;5063961;28;937;-57
2021/11/17 12:22:36;;;;;;;;;;;18.70;99.90;;;;;;5075879;28;898;-57
2021/11/17 12:25:16;;;;;;;;;;;18.60;99.90;;;;;;5074203;28;1108;-55
2021/11/17 12:27:42;;;;;;;;;;;18.60;99.90;;;;;;5075362;28;1139;-56
2021/11/17 12:30:38;;;;;;;;;;;18.40;99.90;;;;;;5071408;28;1317;-56
2021/11/17 12:33:20;;;;;;;;;;;18.40;99.90;;;;;;5008942;28;1914;-56
2021/11/17 12:35:58;;;;;;;;;;;18.50;99.90;;;;;;5051533;28;1135;-56
2021/11/17 12:38:25;;;;;;;;;;;18.50;99.90;;;;;;5072094;28;1396;-56
2021/11/17 12:40:51;;;;;;;;;;;18.50;99.90;;;;;;5075611;28;1261;-56
2021/11/17 12:43:29;;;;;;;;;;;18.40;99.90;;;;;;5072486;28;1345;-56
2021/11/17 12:46:10;;;;;;;;;;;18.40;99.90;;;;;;5057708;28;1012;-56
2021/11/17 12:48:40;;;;;;;;;;;18.40;99.90;;;;;;5066191;28;1392;-56
2021/11/17 12:51:18;;;;;;;;;;;18.30;99.90;;;;;;5074021;28;1953;-57
2021/11/17 12:53:48;;;;;;;;;;;18.30;99.90;;;;;;5072624;28;1186;-56
2021/11/17 12:56:29;;;;;;;;;;;18.20;99.90;;;;;;5070552;28;1233;-56
2021/11/17 12:59:00;;;;;;;;;;;18.20;99.90;;;;;;5033372;28;1313;-56
2021/11/17 13:01:29;;;;;;;;;;;18.20;99.90;;;;;;5071197;28;1083;-56
2021/11/17 13:03:55;;;;;;;;;;;18.20;99.90;;;;;;5077106;28;1039;-56
2021/11/17 13:06:21;;;;;;;;;;;18.20;99.90;;;;;;5077493;28;1180;-56
2021/11/17 13:09:03;;;;;;;;;;;18.10;99.90;;;;;;5078813;28;822;-55
2021/11/17 13:11:30;;;;;;;;;;;18.00;99.90;;;;;;5079382;28;1971;-55
2021/11/17 13:13:58;;;;;;;;;;;17.80;99.90;;;;;;5077417;28;1405;-56
2021/11/17 13:16:25;;;;;;;;;;;17.70;99.90;;;;;;5078659;28;1253;-57
2021/11/17 13:18:53;;;;;;;;;;;17.80;99.90;;;;;;5077830;28;1107;-55
2021/11/17 13:21:23;;;;;;;;;;;17.90;99.90;;;;;;5079065;28;730;-57
2021/11/17 13:24:04;;;;;;;;;;;18.00;99.90;;;;;;5073346;28;1227;-56
2021/11/17 13:26:32;;;;;;;;;;;18.20;99.90;;;;;;5074113;28;1618;-57
2021/11/17 13:29:37;;;;;;;;;;;18.20;99.90;;;;;;5056691;28;1094;-55
2021/11/17 13:32:03;;;;;;;;;;;18.30;99.90;;;;;;5003234;28;1906;-55
2021/11/17 13:34:31;;;;;;;;;;;18.20;99.90;;;;;;4999706;28;1330;-55
2021/11/17 13:37:17;;;;;;;;;;;18.10;99.90;;;;;;5011809;28;850;-55
2021/11/17 13:39:43;;;;;;;;;;;18.00;99.90;;;;;;4996935;28;1165;-55
2021/11/17 13:42:09;;;;;;;;;;;18.00;99.90;;;;;;4997757;28;823;-57
2021/11/17 13:44:36;;;;;;;;;;;18.00;99.90;;;;;;4998222;28;794;-57
2021/11/17 13:47:05;;;;;;;;;;;17.90;99.90;;;;;;4998102;28;1229;-55
2021/11/17 13:49:31;;;;;;;;;;;17.90;99.90;;;;;;4999538;28;995;-55
2021/11/17 13:51:58;;;;;;;;;;;17.90;99.90;;;;;;4981975;28;1903;-55
2021/11/17 13:54:24;;;;;;;;;;;17.90;99.90;;;;;;4985386;28;1021;-55
2021/11/17 13:56:50;;;;;;;;;;;17.90;99.90;;;;;;5000442;28;878;-55
2021/11/17 13:59:16;;;;;;;;;;;17.90;99.90;;;;;;4965396;28;1315;-55
2021/11/17 14:01:42;;;;;;;;;;;17.80;99.90;;;;;;4997851;28;816;-57
2021/11/17 14:04:08;;;;;;;;;;;17.70;99.90;;;;;;4997704;28;841;-55
2021/11/17 14:06:35;;;;;;;;;;;17.60;99.90;;;;;;5050266;28;1107;-57
2021/11/17 14:09:03;;;;;;;;;;;17.50;99.90;;;;;;5078567;28;869;-55
2021/11/17 14:11:33;;;;;;;;;;;17.40;99.90;;;;;;5061815;28;1901;-57
2021/11/17 14:13:59;;;;;;;;;;;17.30;99.90;;;;;;5076637;28;852;-57
2021/11/17 14:16:26;;;;;;;;;;;17.30;99.90;;;;;;5077372;28;911;-57
2021/11/17 14:18:52;;;;;;;;;;;17.30;99.90;;;;;;5077071;28;880;-55
2021/11/17 14:21:18;;;;;;;;;;;17.30;99.90;;;;;;5077877;28;970;-55
2021/11/17 14:23:44;;;;;;;;;;;17.30;99.90;;;;;;5077147;28;1159;-55
2021/11/17 14:26:12;;;;;;;;;;;17.30;99.90;;;;;;5078245;28;794;-55
2021/11/17 14:28:40;;;;;;;;;;;17.30;99.90;;;;;;5077464;28;766;-55
2021/11/17 14:31:18;;;;;;;;;;;17.30;99.90;;;;;;5077730;28;843;-57
2021/11/17 14:33:47;;;;;;;;;;;17.40;99.90;;;;;;5076804;28;1246;-57
2021/11/17 14:36:14;;;;;;;;;;;17.40;99.90;;;;;;5076888;28;961;-57
2021/11/17 14:38:40;;;;;;;;;;;17.40;99.90;;;;;;5077696;28;1010;-55
2021/11/17 14:41:07;;;;;;;;;;;17.40;99.90;;;;;;5077624;28;872;-57
2021/11/17 14:43:33;;;;;;;;;;;17.40;99.90;;;;;;5077227;28;845;-57
2021/11/17 14:46:00;;;;;;;;;;;17.40;99.90;;;;;;5077374;28;936;-54
2021/11/17 14:48:27;;;;;;;;;;;17.40;99.90;;;;;;5079522;28;922;-54
2021/11/17 14:50:54;;;;;;;;;;;17.40;99.90;;;;;;5077327;28;772;-54
2021/11/17 14:53:20;;;;;;;;;;;17.40;99.90;;;;;;5077570;28;1910;-56
2021/11/17 14:55:46;;;;;;;;;;;17.40;99.90;;;;;;5076635;28;1089;-54
2021/11/17 14:58:12;;;;;;;;;;;17.40;99.90;;;;;;5077331;28;838;-54
2021/11/17 15:00:40;;;;;;;;;;;17.30;99.90;;;;;;5076998;28;872;-54
2021/11/17 15:03:06;;;;;;;;;;;17.40;99.90;;;;;;5073365;28;1038;-54
2021/11/17 15:05:32;;;;;;;;;;;17.40;99.90;;;;;;5072795;28;835;-54
2021/11/17 15:07:59;;;;;;;;;;;17.40;99.90;;;;;;5076909;28;830;-54
2021/11/17 15:10:25;;;;;;;;;;;17.30;99.90;;;;;;5076961;28;888;-56
2021/11/17 15:12:51;;;;;;;;;;;17.30;99.90;;;;;;5076201;28;1911;-56
2021/11/17 15:15:23;;;;;;;;;;;17.20;99.90;;;;;;5076633;28;858;-54
2021/11/17 15:17:49;;;;;;;;;;;17.20;99.90;;;;;;5076533;28;923;-56
2021/11/17 15:20:16;;;;;;;;;;;17.20;99.90;;;;;;5074188;28;1467;-56
2021/11/17 15:22:43;;;;;;;;;;;17.20;99.90;;;;;;5076616;28;766;-56
2021/11/17 15:25:14;;;;;;;;;;;17.10;99.90;;;;;;5058510;28;1148;-56
2021/11/17 15:27:42;;;;;;;;;;;17.20;99.90;;;;;;5058339;28;1228;-54
2021/11/17 15:30:10;;;;;;;;;;;17.10;99.90;;;;;;5076078;28;909;-54
2021/11/17 15:32:36;;;;;;;;;;;17.10;99.90;;;;;;5058281;28;1918;-55
2021/11/17 15:35:03;;;;;;;;;;;17.10;99.90;;;;;;5075988;28;1374;-55
2021/11/17 15:37:32;;;;;;;;;;;17.10;99.90;;;;;;5076473;28;814;-57
2021/11/17 15:39:58;;;;;;;;;;;17.10;99.90;;;;;;5076450;28;1007;-57
2021/11/17 15:42:24;;;;;;;;;;;17.00;99.90;;;;;;5074804;28;984;-57
2021/11/17 15:44:50;;;;;;;;;;;17.00;99.90;;;;;;5058232;28;1199;-56
2021/11/17 15:47:17;;;;;;;;;;;17.10;99.90;;;;;;5058149;28;1216;-57
2021/11/17 15:49:43;;;;;;;;;;;17.10;99.90;;;;;;5079901;28;962;-57
2021/11/17 15:52:10;;;;;;;;;;;17.00;99.90;;;;;;5075843;28;1988;-59
2021/11/17 15:54:36;;;;;;;;;;;17.10;99.90;;;;;;5076341;28;773;-55
2021/11/17 15:57:02;;;;;;;;;;;17.10;99.90;;;;;;5075746;28;1193;-57
2021/11/17 15:59:28;;;;;;;;;;;17.10;99.90;;;;;;5075977;28;782;-55
2021/11/17 16:01:55;;;;;;;;;;;17.10;99.90;;;;;;5075725;28;909;-55
2021/11/17 16:04:21;;;;;;;;;;;17.00;99.90;;;;;;5076383;28;810;-57
2021/11/17 16:06:58;;;;;;;;;;;17.00;99.90;;;;;;5058343;28;1528;-55
2021/11/17 16:09:28;;;;;;;;;;;17.00;99.90;;;;;;5058304;28;973;-55
2021/11/17 16:11:54;;;;;;;;;;;17.00;99.90;;;;;;5075968;28;1973;-54
2021/11/17 16:14:20;;;;;;;;;;;16.90;99.90;;;;;;5076050;28;783;-57
2021/11/17 16:16:46;;;;;;;;;;;16.90;99.90;;;;;;5076047;28;801;-57
2021/11/17 16:19:13;;;;;;;;;;;16.90;99.90;;;;;;5075923;28;762;-57
2021/11/17 16:21:40;;;;;;;;;;;16.90;99.90;;;;;;5057994;28;1023;-54
2021/11/17 16:26:51;;;;;;;;;;;16.80;99.90;;;;;;5061145;28;941;-57
2021/11/17 16:29:17;;;;;;;;;;;16.80;99.90;;;;;;5075830;28;869;-54
2021/11/17 16:31:43;;;;;;;;;;;16.80;99.90;;;;;;5075733;28;1914;-55
2021/11/17 16:34:10;;;;;;;;;;;16.80;99.90;;;;;;5075319;28;1198;-57
2021/11/17 16:36:38;;;;;;;;;;;16.80;99.90;;;;;;5074919;28;1230;-54
2021/11/17 16:39:06;;;;;;;;;;;16.80;99.90;;;;;;5057607;28;1064;-56
2021/11/17 16:41:32;;;;;;;;;;;16.90;99.90;;;;;;5075662;28;863;-56
2021/11/17 16:43:58;;;;;;;;;;;16.90;99.90;;;;;;5075215;28;1096;-58
2021/11/17 16:46:25;;;;;;;;;;;17.00;99.90;;;;;;5067943;28;1171;-57
2021/11/17 16:48:51;;;;;;;;;;;17.10;99.90;;;;;;5072696;28;1430;-57
2021/11/17 16:51:21;;;;;;;;;;;17.20;99.90;;;;;;5075746;28;982;-54
2021/11/17 16:54:05;;;;;;;;;;;17.20;99.90;;;;;;5072399;28;1296;-54
2021/11/17 16:56:32;;;;;;;;;;;17.20;99.90;;;;;;5074852;28;1018;-54
2021/11/17 16:58:58;;;;;;;;;;;17.20;99.90;;;;;;5069307;28;1230;-54
2021/11/17 17:01:24;;;;;;;;;;;17.20;99.90;;;;;;5068980;28;1109;-54
2021/11/17 17:03:51;;;;;;;;;;;17.40;99.90;;;;;;5074814;28;1409;-55
2021/11/17 17:06:19;;;;;;;;;;;17.50;99.90;;;;;;5045973;28;1267;-55
2021/11/17 17:08:45;;;;;;;;;;;17.60;99.90;;;;;;5073173;28;924;-54
2021/11/17 17:11:11;;;;;;;;;;;17.60;99.90;;;;;;5053532;28;1162;-56
2021/11/17 17:13:38;;;;;;;;;;;17.60;99.90;;;;;;5069663;28;1906;-56
2021/11/17 17:16:05;;;;;;;;;;;17.60;99.90;;;;;;5073948;28;1200;-57
2021/11/17 17:18:31;;;;;;;;;;;17.60;99.90;;;;;;5073498;28;769;-57
2021/11/17 17:20:59;;;;;;;;;;;17.60;99.90;;;;;;5073220;28;927;-57
2021/11/17 17:23:26;;;;;;;;;;;17.60;99.90;;;;;;5075016;28;774;-54
2021/11/17 17:25:52;;;;;;;;;;;17.60;99.90;;;;;;5069100;28;1358;-54
2021/11/17 17:28:20;;;;;;;;;;;17.60;99.90;;;;;;5069285;28;1201;-55
2021/11/17 17:30:48;;;;;;;;;;;17.60;99.90;;;;;;5074316;28;1452;-56